.
WxDataArchive / Data Records for 2006-09-20
2006-09-19 September 2006 2006-09-21

Data Records for Wednesday, 20 September 2006

Time	Temp	Chill	HIndex	Humid	Dewpt	 Wind 	HiWind	WindDir	Rain 	Barom 
-----	----	-----	------	-----	-----	------	------	-------	-----	----- 
00:00	49.2	49.2	49.2	86	45.2	0	1	248	0.00	29.903 
00:05	49.4	49.4	49.4	84	44.8	1	3	248	0.00	29.903 
00:10	49.6	49.6	49.6	84	45.0	1	4	292	0.00	29.903 
00:15	49.8	49.8	49.8	84	45.2	2	5	270	0.00	29.903 
00:20	49.6	49.6	49.6	84	45.0	2	6	270	0.00	29.903 
00:25	49.4	49.4	49.4	86	45.4	2	5	270	0.00	29.903 
00:30	49.2	49.2	49.2	87	45.5	1	3	315	0.00	29.905 
00:35	49.1	49.1	49.1	88	45.7	1	3	270	0.00	29.905 
00:40	48.9	48.9	48.9	90	46.1	1	2	248	0.00	29.905 
00:45	48.8	48.8	48.8	90	46.0	1	3	248	0.00	29.907 
00:50	48.6	48.6	48.6	91	46.1	1	3	270	0.00	29.907 
00:55	48.6	48.6	48.6	92	46.4	1	3	270	0.00	29.907 
01:00	48.5	48.5	48.5	92	46.3	1	3	270	0.00	29.905 
01:05	48.6	48.6	48.6	92	46.4	1	2	270	0.00	29.905 
01:10	48.6	48.6	48.6	92	46.4	1	3	270	0.00	29.905 
01:15	48.6	48.6	48.6	92	46.4	1	4	270	0.00	29.904 
01:20	48.6	48.6	48.6	92	46.4	1	3	270	0.00	29.904 
01:25	48.5	48.5	48.5	92	46.3	1	4	270	0.00	29.904 
01:30	48.5	48.5	48.5	92	46.3	0	3	270	0.00	29.900 
01:35	48.5	48.5	48.5	92	46.3	1	3	315	0.00	29.900 
01:40	48.5	48.5	48.5	92	46.3	1	4	270	0.00	29.900 
01:45	48.5	48.5	48.5	91	46.0	1	2	270	0.00	29.902 
01:50	48.6	48.6	48.6	91	46.1	1	3	315	0.00	29.902 
01:55	48.6	48.6	48.6	91	46.1	1	3	292	0.00	29.902 
02:00	48.6	48.6	48.6	90	45.8	1	3	292	0.00	29.899 
02:05	48.6	48.6	48.6	90	45.8	1	3	225	0.00	29.899 
02:10	48.6	48.6	48.6	90	45.8	1	2	248	0.00	29.899 
02:15	48.6	48.6	48.6	90	45.8	1	2	248	0.00	29.896 
02:20	48.6	48.6	48.6	90	45.8	1	2	248	0.00	29.896 
02:25	48.6	48.6	48.6	90	45.8	0	2	248	0.00	29.896 
02:30	48.6	48.6	48.6	90	45.8	0	2	248	0.00	29.896 
02:35	48.5	48.5	48.5	90	45.7	1	3	270	0.00	29.896 
02:40	48.5	48.5	48.5	90	45.7	0	3	270	0.00	29.896 
02:45	48.3	48.3	48.3	90	45.5	0	2	270	0.00	29.895 
02:50	48.3	48.3	48.3	89	45.2	1	3	292	0.00	29.895 
02:55	48.3	48.3	48.3	90	45.5	0	2	292	0.00	29.895 
03:00	48.2	48.2	48.2	90	45.4	1	2	270	0.00	29.897 
03:05	48.2	48.2	48.2	90	45.4	0	1	248	0.00	29.897 
03:10	48.3	48.3	48.3	90	45.5	0	2	292	0.00	29.897 
03:15	48.3	48.3	48.3	90	45.5	0	2	248	0.00	29.897 
03:20	48.3	48.3	48.3	89	45.2	0	2	248	0.00	29.897 
03:25	48.5	48.5	48.5	89	45.4	1	2	248	0.00	29.897 
03:30	48.3	48.3	48.3	88	44.9	1	2	248	0.00	29.896 
03:35	48.2	48.2	48.2	88	44.8	1	3	248	0.00	29.896 
03:40	48.0	48.0	48.0	88	44.6	1	2	248	0.00	29.896 
03:45	47.9	47.9	47.9	88	44.5	1	2	248	0.00	29.898 
03:50	47.9	47.9	47.9	88	44.5	1	3	248	0.00	29.898 
03:55	47.7	47.7	47.7	88	44.3	1	2	248	0.00	29.898 
04:00	47.7	47.7	47.7	88	44.3	1	3	248	0.00	29.898 
04:05	47.7	47.7	47.7	88	44.3	0	2	248	0.00	29.898 
04:10	47.7	47.7	47.7	88	44.3	1	2	248	0.00	29.898 
04:15	47.9	47.9	47.9	88	44.5	1	3	248	0.00	29.900 
04:20	47.9	47.9	47.9	87	44.2	1	2	248	0.00	29.900 
04:25	48.0	48.0	48.0	87	44.3	1	2	248	0.00	29.900 
04:30	48.0	48.0	48.0	86	44.0	1	2	248	0.00	29.901 
04:35	48.2	48.2	48.2	86	44.2	1	3	270	0.00	29.901 
04:40	48.2	48.2	48.2	86	44.2	1	3	270	0.00	29.901 
04:45	48.3	48.3	48.3	86	44.3	1	2	270	0.00	29.901 
04:50	48.3	48.3	48.3	86	44.3	1	2	270	0.00	29.901 
04:55	48.3	48.3	48.3	85	44.0	1	3	270	0.00	29.901 
05:00	48.3	48.3	48.3	85	44.0	1	3	270	0.00	29.902 
05:05	48.3	48.3	48.3	85	44.0	1	2	270	0.00	29.902 
05:10	48.3	48.3	48.3	85	44.0	1	4	270	0.00	29.902 
05:15	48.3	48.3	48.3	85	44.0	1	3	270	0.00	29.903 
05:20	48.2	48.2	48.2	86	44.2	1	3	248	0.00	29.903 
05:25	48.0	48.0	48.0	87	44.3	1	3	248	0.00	29.903 
05:30	48.0	48.0	48.0	87	44.3	1	4	270	0.00	29.912 
05:35	47.9	47.9	47.9	87	44.2	1	3	248	0.00	29.912 
05:40	47.9	47.9	47.9	87	44.2	1	3	248	0.00	29.912 
05:45	47.9	47.9	47.9	87	44.2	1	4	248	0.00	29.909 
05:50	47.7	47.7	47.7	87	44.0	1	4	248	0.00	29.909 
05:55	47.7	47.7	47.7	87	44.0	1	2	270	0.00	29.909 
06:00	47.7	47.7	47.7	87	44.0	1	4	270	0.00	29.910 
06:05	47.6	47.6	47.6	87	43.9	1	3	270	0.00	29.910 
06:10	47.6	47.6	47.6	87	43.9	1	2	270	0.00	29.910 
06:15	47.6	47.6	47.6	87	43.9	1	4	270	0.00	29.912 
06:20	47.6	47.6	47.6	87	43.9	1	3	270	0.00	29.912 
06:25	47.6	47.6	47.6	87	43.9	1	2	270	0.00	29.912 
06:30	47.6	47.6	47.6	87	43.9	1	3	248	0.00	29.915 
06:35	47.6	47.6	47.6	87	43.9	1	3	270	0.00	29.915 
06:40	47.6	47.6	47.6	87	43.9	1	3	270	0.00	29.915 
06:45	47.6	47.6	47.6	87	43.9	1	3	248	0.00	29.918 
06:50	47.7	47.7	47.7	87	44.0	1	2	248	0.00	29.918 
06:55	47.7	47.7	47.7	86	43.7	1	3	248	0.00	29.918 
07:00	47.7	47.7	47.7	87	44.0	1	2	248	0.00	29.929 
07:05	47.9	47.9	47.9	86	43.9	1	3	248	0.00	29.929 
07:10	47.9	47.9	47.9	86	43.9	0	2	248	0.00	29.929 
07:15	48.0	48.0	48.0	86	44.0	1	2	315	0.00	29.935 
07:20	48.0	48.0	48.0	86	44.0	1	2	225	0.00	29.935 
07:25	48.0	48.0	48.0	86	44.0	0	2	225	0.00	29.935 
07:30	48.0	48.0	48.0	86	44.0	0	1	292	0.00	29.945 
07:35	48.0	48.0	48.0	86	44.0	0	2	315	0.00	29.945 
07:40	48.0	48.0	48.0	86	44.0	1	2	292	0.00	29.945 
07:45	47.9	47.9	47.9	87	44.2	1	3	292	0.00	29.947 
07:50	47.9	47.9	47.9	87	44.2	1	2	315	0.00	29.947 
07:55	47.7	47.7	47.7	88	44.3	0	1	315	0.00	29.947 
08:00	47.7	47.7	47.7	88	44.3	0	2	315	0.00	29.950 
08:05	47.7	47.7	47.7	88	44.3	0	3	270	0.00	29.950 
08:10	47.7	47.7	47.7	89	44.6	0	2	270	0.00	29.950 
08:15	47.7	47.7	47.7	89	44.6	1	3	270	0.00	29.953 
08:20	48.0	48.0	48.0	89	44.9	0	2	270	0.00	29.953 
08:25	48.3	48.3	48.3	89	45.2	1	3	270	0.00	29.953 
08:30	48.3	48.3	48.3	88	44.9	1	2	315	0.00	29.957 
08:35	48.5	48.5	48.5	88	45.1	0	2	315	0.00	29.957 
08:40	48.5	48.5	48.5	88	45.1	0	1	270	0.00	29.957 
08:45	48.6	48.6	48.6	88	45.2	0	2	292	0.00	29.965 
08:50	48.9	48.9	48.9	88	45.5	0	2	292	0.00	29.965 
08:55	48.9	48.9	48.9	87	45.2	1	4	292	0.00	29.965 
09:00	48.9	48.9	48.9	87	45.2	1	3	248	0.00	29.971 
09:05	48.9	48.9	48.9	87	45.2	1	2	248	0.00	29.971 
09:10	49.1	49.1	49.1	87	45.4	1	2	248	0.00	29.971 
09:15	49.2	49.2	49.2	87	45.5	1	3	248	0.00	29.979 
09:20	49.4	49.4	49.4	87	45.7	1	3	248	0.00	29.979 
09:25	50.1	50.1	50.1	87	46.4	1	3	270	0.00	29.979 
09:30	50.8	50.8	50.8	84	46.1	1	4	292	0.00	29.977 
09:35	51.4	51.4	51.4	82	46.1	1	3	270	0.00	29.977 
09:40	51.7	51.7	51.7	81	46.1	2	4	270	0.00	29.977 
09:45	51.6	51.6	51.6	81	46.0	1	3	315	0.00	29.976 
09:50	51.7	51.7	51.7	81	46.1	1	3	315	0.00	29.976 
09:55	51.6	51.6	51.6	80	45.6	1	3	248	0.00	29.976 
10:00	51.6	51.6	51.6	81	46.0	1	2	248	0.00	29.979 
10:05	51.9	51.9	51.9	82	46.6	1	2	248	0.00	29.979 
10:10	52.2	52.2	52.2	79	45.9	1	2	292	0.00	29.979 
10:15	52.8	52.8	52.8	79	46.5	1	3	248	0.00	29.986 
10:20	52.9	52.9	52.9	79	46.6	1	3	270	0.00	29.986 
10:25	53.3	53.3	53.3	78	46.6	1	3	315	0.00	29.986 
10:30	53.6	53.6	53.6	76	46.2	1	3	292	0.00	29.989 
10:35	54.4	54.4	54.4	76	47.0	0	2	270	0.00	29.989 
10:40	54.4	54.4	54.4	73	45.9	1	3	315	0.00	29.989 
10:45	54.7	54.7	54.7	74	46.6	1	4	292	0.00	29.992 
10:50	54.8	54.8	54.8	72	45.9	1	3	315	0.00	29.992 
10:55	54.7	54.7	54.7	73	46.2	1	3	248	0.00	29.992 
11:00	55.3	55.3	55.3	73	46.8	1	3	292	0.00	29.992 
11:05	55.7	55.7	55.7	73	47.2	1	4	315	0.00	29.992 
11:10	55.1	55.1	55.1	72	46.2	1	3	315	0.00	29.992 
11:15	54.4	54.4	54.4	70	44.8	1	3	315	0.00	29.996 
11:20	54.4	54.4	54.4	72	45.6	0	3	315	0.00	29.996 
11:25	55.3	55.3	55.3	72	46.4	0	3	292	0.00	29.996 
11:30	55.7	55.7	55.7	71	46.4	0	1	292	0.00	29.995 
11:35	55.4	55.4	55.4	69	45.4	0	2	292	0.00	29.995 
11:40	55.1	55.1	55.1	70	45.5	0	1	292	0.00	29.995 
11:45	55.0	55.0	55.0	70	45.4	0	2	315	0.00	29.995 
11:50	54.8	54.8	54.8	70	45.2	0	1	315	0.00	29.995 
11:55	54.5	54.5	54.5	70	44.9	1	3	270	0.00	29.995 
12:00	54.4	54.4	54.4	72	45.6	1	3	270	0.00	30.000 
12:05	54.4	54.4	54.4	71	45.2	1	2	270	0.00	30.000 
12:10	54.5	54.5	54.5	70	44.9	0	2	292	0.00	30.000 
12:15	54.7	54.7	54.7	70	45.1	1	6	315	0.00	29.998 
12:20	55.0	55.0	55.0	72	46.1	1	2	270	0.00	29.998 
12:25	55.1	55.1	55.1	69	45.1	1	3	315	0.00	29.998 
12:30	55.3	55.3	55.3	69	45.3	1	4	248	0.00	29.995 
12:35	55.9	55.9	55.9	68	45.5	1	3	292	0.00	29.995 
12:40	56.6	56.6	56.6	66	45.4	1	3	292	0.00	29.995 
12:45	56.7	56.7	56.7	65	45.1	0	2	292	0.00	29.991 
12:50	56.5	56.5	56.5	65	44.9	1	3	315	0.00	29.991 
12:55	56.9	56.9	56.9	63	44.4	1	3	338	0.00	29.991 
13:00	57.6	57.6	57.6	65	45.9	2	3	270	0.00	29.990 
13:05	58.9	58.9	58.9	61	45.5	3	5	270	0.00	29.990 
13:10	58.6	58.6	58.6	60	44.8	2	4	315	0.00	29.990 
13:15	57.8	57.8	57.8	57	42.7	2	4	270	0.00	29.991 
13:20	56.9	56.9	56.9	58	42.3	2	4	270	0.00	29.991 
13:25	56.5	56.5	56.5	62	43.6	0	2	270	0.00	29.991 
13:30	56.3	56.3	56.3	61	43.0	0	3	292	0.00	29.994 
13:35	56.3	56.3	56.3	61	43.0	0	2	0	0.00	29.994 
13:40	56.5	56.5	56.5	62	43.6	0	1	0	0.00	29.994 
13:45	56.2	56.2	56.2	62	43.4	0	2	338	0.00	29.994 
13:50	56.0	56.0	56.0	63	43.6	0	1	338	0.00	29.994 
13:55	55.9	55.9	55.9	64	43.9	0	1	338	0.00	29.994 
14:00	55.7	55.7	55.7	66	44.5	0	0	---	0.00	29.994 
14:05	55.7	55.7	55.7	64	43.7	0	2	338	0.00	29.994 
14:10	55.7	55.7	55.7	63	43.3	1	2	315	0.00	29.994 
14:15	56.0	56.0	56.0	62	43.2	0	3	270	0.00	29.993 
14:20	56.2	56.2	56.2	59	42.1	1	3	315	0.00	29.993 
14:25	56.0	56.0	56.0	60	42.3	1	3	315	0.00	29.993 
14:30	55.9	55.9	55.9	60	42.2	1	3	292	0.00	29.993 
14:35	55.7	55.7	55.7	62	42.9	1	3	292	0.00	29.993 
14:40	55.7	55.7	55.7	62	42.9	0	2	292	0.00	29.993 
14:45	55.7	55.7	55.7	64	43.7	0	1	315	0.00	29.991 
14:50	55.9	55.9	55.9	62	43.1	0	1	315	0.00	29.991 
14:55	56.2	56.2	56.2	62	43.4	0	1	315	0.00	29.991 
15:00	56.6	56.6	56.6	59	42.4	0	2	315	0.00	29.986 
15:05	57.2	57.2	57.2	59	43.0	1	3	22	0.00	29.986 
15:10	57.8	57.8	57.8	59	43.6	1	3	248	0.00	29.986 
15:15	58.0	58.0	58.0	59	43.8	0	2	292	0.00	29.979 
15:20	58.1	58.1	58.1	58	43.4	0	2	292	0.00	29.979 
15:25	57.8	57.8	57.8	56	42.2	1	3	270	0.01	29.979 
15:30	57.5	57.5	57.5	56	41.9	2	4	315	0.00	29.980 
15:35	57.2	57.2	57.2	57	42.1	1	3	315	0.00	29.980 
15:40	57.0	57.0	57.0	59	42.8	0	2	315	0.00	29.980 
15:45	57.0	57.0	57.0	60	43.3	1	4	292	0.00	29.977 
15:50	57.2	57.2	57.2	59	43.0	1	3	315	0.00	29.977 
15:55	57.6	57.6	57.6	57	42.5	1	3	315	0.00	29.977 
16:00	58.3	58.3	58.3	59	44.0	1	3	292	0.00	29.974 
16:05	58.6	58.6	58.6	57	43.4	1	4	338	0.00	29.974 
16:10	58.6	58.6	58.6	56	43.0	0	2	315	0.00	29.974 
16:15	58.9	58.9	58.9	54	42.3	0	2	315	0.00	29.971 
16:20	59.3	59.3	59.3	55	43.1	1	4	292	0.00	29.971 
16:25	59.3	59.3	59.3	52	41.7	1	4	270	0.00	29.971 
16:30	58.3	58.3	58.3	53	41.2	1	4	292	0.00	29.971 
16:35	57.5	57.5	57.5	55	41.5	1	2	338	0.00	29.971 
16:40	57.3	57.3	57.3	56	41.7	0	2	315	0.00	29.971 
16:45	57.2	57.2	57.2	59	43.0	0	1	315	0.00	29.972 
16:50	57.5	57.5	57.5	60	43.7	0	1	315	0.00	29.972 
16:55	57.6	57.6	57.6	58	42.9	0	1	315	0.00	29.972 
17:00	58.0	58.0	58.0	59	43.8	0	1	292	0.00	29.969 
17:05	58.0	58.0	58.0	51	40.0	1	3	315	0.00	29.969 
17:10	58.0	58.0	58.0	54	41.4	0	2	315	0.00	29.969 
17:15	58.3	58.3	58.3	53	41.2	0	2	315	0.00	29.968 
17:20	58.3	58.3	58.3	51	40.3	1	3	315	0.00	29.968 
17:25	58.0	58.0	58.0	54	41.4	1	2	338	0.00	29.968 
17:30	57.8	57.8	57.8	53	40.8	1	3	270	0.00	29.974 
17:35	57.5	57.5	57.5	54	41.0	0	2	315	0.00	29.974 
17:40	57.3	57.3	57.3	55	41.3	0	1	315	0.00	29.974 
17:45	57.2	57.2	57.2	55	41.2	0	2	315	0.00	29.975 
17:50	57.0	57.0	57.0	58	42.4	0	2	315	0.00	29.975 
17:55	57.0	57.0	57.0	58	42.4	0	1	315	0.00	29.975 
18:00	56.9	56.9	56.9	58	42.3	0	1	315	0.00	29.976 
18:05	56.7	56.7	56.7	56	41.2	0	1	315	0.00	29.976 
18:10	56.7	56.7	56.7	58	42.1	0	1	315	0.00	29.976 
18:15	56.7	56.7	56.7	59	42.5	0	1	315	0.00	29.977 
18:20	56.7	56.7	56.7	59	42.5	0	1	315	0.00	29.977 
18:25	56.7	56.7	56.7	60	43.0	0	1	315	0.00	29.977 
18:30	56.7	56.7	56.7	58	42.1	0	1	315	0.00	29.977 
18:35	56.9	56.9	56.9	58	42.3	0	2	315	0.00	29.977 
18:40	56.9	56.9	56.9	57	41.8	0	1	315	0.00	29.977 
18:45	56.7	56.7	56.7	59	42.5	0	1	315	0.00	29.979 
18:50	56.7	56.7	56.7	61	43.4	0	1	315	0.00	29.979 
18:55	56.5	56.5	56.5	59	42.3	0	1	315	0.00	29.979 
19:00	56.3	56.3	56.3	62	43.4	0	1	315	0.00	29.982 
19:05	56.2	56.2	56.2	62	43.4	0	1	315	0.00	29.982 
19:10	56.0	56.0	56.0	63	43.6	0	1	315	0.00	29.982 
19:15	56.0	56.0	56.0	62	43.2	0	0	---	0.00	29.984 
19:20	55.9	55.9	55.9	63	43.5	0	1	315	0.00	29.984 
19:25	55.7	55.7	55.7	64	43.7	0	0	---	0.00	29.984 
19:30	55.6	55.6	55.6	64	43.6	0	0	---	0.00	29.982 
19:35	55.4	55.4	55.4	65	43.8	0	1	315	0.00	29.982 
19:40	55.3	55.3	55.3	65	43.7	0	0	---	0.00	29.982 
19:45	55.1	55.1	55.1	66	43.9	0	0	---	0.00	29.988 
19:50	54.8	54.8	54.8	68	44.4	0	0	---	0.00	29.988 
19:55	54.5	54.5	54.5	68	44.2	0	0	---	0.00	29.988 
20:00	54.2	54.2	54.2	69	44.3	0	0	---	0.00	29.992 
20:05	53.9	53.9	53.9	69	44.0	0	0	---	0.00	29.992 
20:10	53.5	53.5	53.5	72	44.7	0	0	---	0.00	29.992 
20:15	53.1	53.1	53.1	71	43.9	0	0	---	0.00	29.993 
20:20	52.8	52.8	52.8	71	43.7	0	0	---	0.00	29.993 
20:25	52.6	52.6	52.6	71	43.5	0	0	---	0.00	29.993 
20:30	52.2	52.2	52.2	72	43.4	0	0	---	0.00	29.996 
20:35	51.9	51.9	51.9	73	43.5	0	0	---	0.00	29.996 
20:40	51.6	51.6	51.6	75	43.9	0	0	---	0.00	29.996 
20:45	51.0	51.0	51.0	77	44.0	0	0	---	0.00	29.997 
20:50	50.5	50.5	50.5	78	43.9	0	0	---	0.00	29.997 
20:55	49.9	49.9	49.9	79	43.6	0	0	---	0.00	29.997 
21:00	49.5	49.5	49.5	80	43.6	0	0	---	0.00	30.002 
21:05	49.2	49.2	49.2	81	43.6	0	0	---	0.00	30.002 
21:10	48.8	48.8	48.8	81	43.2	0	0	---	0.00	30.002 
21:15	48.2	48.2	48.2	83	43.3	0	0	---	0.00	30.000 
21:20	47.7	47.7	47.7	84	43.1	0	0	---	0.00	30.000 
21:25	47.4	47.4	47.4	85	43.1	0	0	---	0.00	30.000 
21:30	47.0	47.0	47.0	86	43.0	0	0	---	0.00	30.008 
21:35	46.8	46.8	46.8	87	43.1	0	0	---	0.00	30.008 
21:40	46.5	46.5	46.5	87	42.8	0	0	---	0.00	30.008 
21:45	46.2	46.2	46.2	88	42.8	0	0	---	0.00	30.011 
21:50	46.1	46.1	46.1	88	42.7	0	0	---	0.00	30.011 
21:55	45.8	45.8	45.8	89	42.7	0	0	---	0.00	30.011 
22:00	45.7	45.7	45.7	89	42.6	0	0	---	0.00	30.009 
22:05	45.4	45.4	45.4	89	42.3	0	0	---	0.00	30.009 
22:10	45.2	45.2	45.2	90	42.4	0	0	---	0.00	30.009 
22:15	45.1	45.1	45.1	90	42.3	0	0	---	0.00	30.005 
22:20	44.9	44.9	44.9	90	42.1	0	0	---	0.00	30.005 
22:25	44.8	44.8	44.8	90	42.0	0	0	---	0.00	30.005 
22:30	44.5	44.5	44.5	91	42.0	0	0	---	0.00	30.007 
22:35	44.3	44.3	44.3	91	41.8	0	0	---	0.00	30.007 
22:40	44.2	44.2	44.2	91	41.7	0	0	---	0.00	30.007 
22:45	44.1	44.1	44.1	91	41.6	0	0	---	0.00	30.014 
22:50	43.9	43.9	43.9	91	41.4	0	0	---	0.00	30.014 
22:55	43.8	43.8	43.8	92	41.6	0	0	---	0.00	30.014 
23:00	43.6	43.6	43.6	92	41.4	0	0	---	0.00	30.019 
23:05	43.5	43.5	43.5	92	41.3	0	0	---	0.00	30.019 
23:10	43.3	43.3	43.3	92	41.1	0	0	---	0.00	30.019 
23:15	43.2	43.2	43.2	92	41.0	0	0	---	0.00	30.022 
23:20	43.1	43.1	43.1	92	40.9	0	0	---	0.00	30.022 
23:25	42.9	42.9	42.9	92	40.7	0	0	---	0.00	30.022 
23:30	42.8	42.8	42.8	92	40.6	0	0	---	0.00	30.028 
23:35	42.6	42.6	42.6	92	40.4	0	0	---	0.00	30.028 
23:40	42.5	42.5	42.5	92	40.3	0	0	---	0.00	30.028 
23:45	42.5	42.5	42.5	92	40.3	0	0	---	0.00	30.030 
23:50	42.3	42.3	42.3	93	40.4	0	0	---	0.00	30.030 
23:55	42.3	42.3	42.3	93	40.4	0	0	---	0.00	30.030 

CoCoRaHS
IN-AL-39
A2 Web Hosting
Creative Commons License
GoDaddy
Look for:

loaded 2017-12-10 21:15:38 • last modified 2010-11-18 10:43:29
Privacy PolicyDisclaimer
• wx.awcolley.com is powered by PmWiki v.2002016 •
• all content (unless otherwise noted) © 2017 A W Colley